Time;durP1;ratioP1;P1;durP2;ratioP2;P2;SDS_P1;SDS_P2;PMS_P1;PMS_P2;Temp;Humidity;BMP_temperature;BMP_pressure;BME280_temperature;BME280_humidity;BME280_pressure;Samples;Min_cycle;Max_cycle;Signal;HPM_P1;HPM_P2
2022/10/01 00:00:34;;;;;;;4.85;4.30;;;11.10;99.90;;;;;;4970296;28;20046;-78
2022/10/01 00:03:00;;;;;;;5.25;4.85;;;11.10;99.90;;;;;;4989220;28;20081;-77
2022/10/01 00:05:26;;;;;;;5.32;4.93;;;11.10;99.90;;;;;;4988927;28;20093;-79
2022/10/01 00:07:51;;;;;;;5.97;5.45;;;12.60;99.90;;;;;;4991718;28;20103;-77
2022/10/01 00:10:17;;;;;;;7.07;5.60;;;12.60;99.90;;;;;;4987150;28;20042;-78
2022/10/01 00:12:46;;;;;;;6.22;5.70;;;11.00;99.90;;;;;;4988937;28;20038;-78
2022/10/01 00:15:15;;;;;;;5.43;4.93;;;11.70;99.90;;;;;;4986851;28;20528;-80
2022/10/01 00:17:42;;;;;;;5.85;5.25;;;11.00;99.90;;;;;;4971224;28;20038;-78
2022/10/01 00:20:08;;;;;;;7.32;5.72;;;11.00;99.90;;;;;;4986453;28;20125;-78
2022/10/01 00:22:35;;;;;;;6.57;5.97;;;11.00;99.90;;;;;;4986877;28;20061;-79
2022/10/01 00:25:01;;;;;;;8.13;6.30;;;11.00;99.90;;;;;;4987174;28;20594;-79
2022/10/01 00:27:28;;;;;;;6.75;6.18;;;11.00;99.90;;;;;;4986426;28;20042;-79
2022/10/01 00:29:54;;;;;;;7.25;6.50;;;10.90;99.90;;;;;;4986698;28;20101;-78
2022/10/01 00:32:20;;;;;;;7.47;6.75;;;12.00;99.90;;;;;;4987567;28;20378;-79
2022/10/01 00:34:46;;;;;;;8.73;6.38;;;12.60;99.90;;;;;;4986371;28;20087;-79
2022/10/01 00:37:11;;;;;;;6.65;6.07;;;12.30;99.90;;;;;;4987208;28;20056;-78
2022/10/01 00:39:37;;;;;;;8.20;7.20;;;12.80;99.90;;;;;;4970351;28;20077;-79
2022/10/01 00:42:14;;;;;;;7.53;6.93;;;12.30;99.90;;;;;;4985962;28;20096;-79
2022/10/01 00:44:40;;;;;;;8.55;6.60;;;10.90;99.90;;;;;;4987217;28;20050;-81
2022/10/01 00:47:31;;;;;;;8.30;7.30;;;10.80;99.90;;;;;;4971015;28;20049;-80
2022/10/01 00:50:22;;;;;;;8.40;7.25;;;10.90;99.90;;;;;;4981570;28;20042;-81
2022/10/01 00:52:55;;;;;;;7.35;6.65;;;10.80;99.90;;;;;;4970880;28;20050;-80
2022/10/01 00:55:27;;;;;;;8.87;6.57;;;10.90;99.90;;;;;;4970230;28;20100;-81
2022/10/01 00:57:54;;;;;;;7.68;6.90;;;10.90;99.90;;;;;;4980974;28;20104;-80
2022/10/01 01:00:20;;;;;;;9.95;7.00;;;12.00;99.90;;;;;;4988249;28;20039;-85
2022/10/01 01:02:45;;;;;;;8.25;7.43;;;10.70;99.90;;;;;;4986507;28;20038;-85
2022/10/01 01:05:12;;;;;;;7.20;6.50;;;10.80;99.90;;;;;;4988094;28;20038;-85
2022/10/01 01:07:44;;;;;;;8.18;7.30;;;10.80;99.90;;;;;;4988154;28;20046;-85
2022/10/01 01:10:13;;;;;;;8.48;7.05;;;12.40;99.90;;;;;;4987044;28;20470;-86
2022/10/01 01:13:11;;;;;;;8.88;7.97;;;11.30;99.90;;;;;;4988253;28;20050;-86
2022/10/01 01:15:48;;;;;;;8.48;7.68;;;12.40;99.90;;;;;;4968308;28;20046;-82
2022/10/01 01:18:23;;;;;;;9.98;7.00;;;10.80;99.90;;;;;;4987974;28;20045;-82
2022/10/01 01:20:55;;;;;;;8.48;7.57;;;10.80;99.90;;;;;;4986439;28;20079;-80
2022/10/01 01:23:45;;;;;;;13.18;8.02;;;12.50;99.90;;;;;;4970569;28;20097;-82
2022/10/01 01:26:30;;;;;;;8.52;7.53;;;10.80;99.90;;;;;;4984633;28;20046;-82
2022/10/01 01:29:11;;;;;;;8.00;7.20;;;10.80;99.90;;;;;;4979658;28;20051;-81
2022/10/01 01:31:45;;;;;;;7.30;6.60;;;10.80;99.90;;;;;;4985815;28;20105;-80
2022/10/01 01:34:15;;;;;;;7.78;6.68;;;10.70;99.90;;;;;;4988197;28;20392;-82
2022/10/01 01:36:45;;;;;;;7.70;6.90;;;11.20;99.90;;;;;;4986407;28;20101;-83
2022/10/01 01:39:15;;;;;;;7.85;6.63;;;10.80;99.90;;;;;;4986178;28;20413;-81
2022/10/01 01:41:48;;;;;;;10.13;6.55;;;10.70;99.90;;;;;;4988212;28;20129;-82
2022/10/01 01:44:20;;;;;;;9.10;7.90;;;10.80;99.90;;;;;;4970375;28;20078;-81
2022/10/01 01:46:48;;;;;;;8.50;6.97;;;11.60;99.90;;;;;;4987700;28;20050;-82
2022/10/01 01:49:19;;;;;;;7.88;7.15;;;10.70;99.90;;;;;;4986810;28;20401;-86
2022/10/01 01:51:50;;;;;;;10.00;6.82;;;10.80;99.90;;;;;;4971470;28;20134;-82
2022/10/01 01:54:17;;;;;;;8.88;6.82;;;10.70;99.90;;;;;;4974079;28;20046;-82
2022/10/01 01:56:42;;;;;;;7.97;6.85;;;9.70;99.90;;;;;;4991441;28;20050;-81
2022/10/01 01:59:09;;;;;;;6.78;6.15;;;10.70;99.90;;;;;;4989305;28;20122;-83
2022/10/01 02:01:39;;;;;;;7.22;6.53;;;10.70;99.90;;;;;;4990710;28;20438;-82
2022/10/01 02:04:08;;;;;;;7.65;5.85;;;10.70;99.90;;;;;;4973417;28;20423;-82
2022/10/01 02:07:07;;;;;;;6.88;5.95;;;10.70;99.90;;;;;;4988807;28;20039;-85
2022/10/01 02:09:44;;;;;;;7.32;6.07;;;10.70;99.90;;;;;;4988452;28;20038;-82
2022/10/01 02:12:20;;;;;;;7.25;5.97;;;10.70;99.90;;;;;;4990907;28;20359;-82
2022/10/01 02:14:57;;;;;;;7.32;5.80;;;10.60;99.90;;;;;;4989274;28;20062;-82
2022/10/01 02:17:42;;;;;;;6.70;6.10;;;10.60;99.90;;;;;;4973493;28;20414;-81
2022/10/01 02:20:18;;;;;;;5.72;5.22;;;10.60;99.90;;;;;;4983878;28;20049;-81
2022/10/01 02:22:53;;;;;;;5.43;5.00;;;12.10;99.90;;;;;;4972889;28;20513;-80
2022/10/01 02:25:25;;;;;;;5.57;5.18;;;10.60;99.90;;;;;;4991043;28;20134;-81
2022/10/01 02:28:03;;;;;;;7.85;4.88;;;10.60;99.90;;;;;;4988771;28;20042;-81
2022/10/01 02:30:31;;;;;;;5.47;4.97;;;10.70;99.90;;;;;;4989206;28;20050;-80
2022/10/01 02:32:59;;;;;;;6.63;4.93;;;10.60;99.90;;;;;;4984540;28;20049;-80
2022/10/01 02:35:26;;;;;;;4.78;4.38;;;11.30;99.90;;;;;;4990087;28;20046;-80
2022/10/01 02:37:55;;;;;;;4.88;4.38;;;10.60;99.90;;;;;;4989539;28;20042;-80
2022/10/01 02:40:25;;;;;;;5.00;4.28;;;10.60;99.90;;;;;;4984428;28;20054;-81
2022/10/01 02:42:56;;;;;;;6.03;4.88;;;10.70;99.90;;;;;;4988844;28;20572;-81
2022/10/01 02:45:24;;;;;;;7.55;4.18;;;11.80;99.90;;;;;;4989217;28;20038;-81
2022/10/01 02:48:07;;;;;;;3.50;3.30;;;10.60;99.90;;;;;;4972501;28;20116;-81
2022/10/01 02:50:55;;;;;;;4.18;3.58;;;10.70;99.90;;;;;;4985941;28;20104;-81
2022/10/01 02:53:43;;;;;;;4.05;3.65;;;10.70;99.90;;;;;;4972642;28;20042;-82
2022/10/01 02:56:10;;;;;;;4.32;3.55;;;10.70;99.90;;;;;;4981621;28;20061;-81
2022/10/01 02:58:36;;;;;;;4.07;3.80;;;11.40;99.90;;;;;;4988835;28;20058;-81
2022/10/01 03:01:02;;;;;;;3.95;3.55;;;10.70;99.90;;;;;;4989971;28;20537;-80
2022/10/01 03:03:29;;;;;;;3.53;3.20;;;10.80;99.90;;;;;;4988921;28;20038;-83
2022/10/01 03:05:55;;;;;;;3.35;3.15;;;10.90;99.90;;;;;;4988714;28;20030;-82
2022/10/01 03:08:21;;;;;;;4.72;3.78;;;11.90;99.90;;;;;;4988748;28;20438;-81
2022/10/01 03:10:46;;;;;;;3.67;3.38;;;10.50;99.90;;;;;;4987591;28;20051;-80
2022/10/01 03:13:12;;;;;;;3.70;3.42;;;12.10;99.90;;;;;;4988441;28;20070;-83
2022/10/01 03:15:38;;;;;;;3.58;3.22;;;10.70;99.90;;;;;;4989831;28;20417;-82
2022/10/01 03:18:03;;;;;;;3.30;3.10;;;10.80;99.90;;;;;;4987928;28;20530;-80
2022/10/01 03:20:29;;;;;;;3.13;2.75;;;10.80;99.90;;;;;;4987880;28;20121;-81
2022/10/01 03:22:55;;;;;;;4.72;2.83;;;12.00;99.90;;;;;;4987597;28;20105;-81
2022/10/01 03:25:20;;;;;;;3.28;2.97;;;11.80;99.90;;;;;;4988828;28;20054;-83
2022/10/01 03:27:46;;;;;;;3.42;3.13;;;10.80;99.90;;;;;;4989664;28;20053;-84
2022/10/01 03:30:12;;;;;;;3.58;3.28;;;12.00;99.90;;;;;;4988242;28;20037;-81
2022/10/01 03:32:38;;;;;;;2.92;2.72;;;10.90;99.90;;;;;;4972520;28;20050;-85
2022/10/01 03:35:03;;;;;;;2.70;2.58;;;12.10;99.90;;;;;;4973182;28;20050;-84
2022/10/01 03:37:29;;;;;;;2.60;2.40;;;10.80;99.90;;;;;;4971595;28;20050;-83
2022/10/01 03:39:55;;;;;;;2.58;2.38;;;10.80;99.90;;;;;;4988642;28;20118;-82
2022/10/01 03:42:20;;;;;;;2.55;2.30;;;10.90;99.90;;;;;;4972079;28;20046;-79
2022/10/01 03:44:47;;;;;;;1.80;1.70;;;10.90;99.90;;;;;;4988983;28;20082;-80
2022/10/01 03:47:13;;;;;;;3.10;2.03;;;12.00;99.90;;;;;;4988535;28;20054;-84
2022/10/01 03:49:38;;;;;;;1.77;1.67;;;10.90;99.90;;;;;;4989338;28;20031;-79
2022/10/01 03:52:05;;;;;;;2.03;1.60;;;10.90;99.90;;;;;;4987448;28;20046;-81
2022/10/01 03:54:31;;;;;;;2.20;1.70;;;11.00;99.90;;;;;;4988426;28;20053;-84
2022/10/01 03:56:57;;;;;;;1.63;1.40;;;11.00;99.90;;;;;;4988568;28;20074;-81
2022/10/01 03:59:26;;;;;;;1.50;1.40;;;10.90;99.90;;;;;;4987426;28;20513;-81
2022/10/01 04:01:52;;;;;;;1.50;1.40;;;11.00;99.90;;;;;;4988115;28;20058;-81
2022/10/01 04:04:18;;;;;;;1.55;1.42;;;12.30;99.90;;;;;;4989828;28;20486;-80
2022/10/01 04:06:43;;;;;;;2.47;2.00;;;12.40;99.90;;;;;;4971304;28;20050;-80
2022/10/01 04:09:09;;;;;;;1.73;1.30;;;11.00;99.90;;;;;;4988584;28;20582;-82
2022/10/01 04:11:35;;;;;;;2.45;1.17;;;11.00;99.90;;;;;;4987629;28;20048;-81
2022/10/01 04:14:01;;;;;;;1.35;1.25;;;11.00;99.90;;;;;;4986463;28;20181;-83
2022/10/01 04:16:27;;;;;;;1.42;1.20;;;11.00;99.90;;;;;;4988041;28;20117;-81
2022/10/01 04:18:53;;;;;;;2.15;1.35;;;11.00;99.90;;;;;;4988001;28;20046;-80
2022/10/01 04:21:19;;;;;;;2.15;1.67;;;11.00;99.90;;;;;;4970976;28;20054;-81
2022/10/01 04:23:45;;;;;;;3.05;1.67;;;11.00;99.90;;;;;;4989160;28;20049;-81
2022/10/01 04:26:10;;;;;;;1.48;1.38;;;11.00;99.90;;;;;;4987335;28;20046;-81
2022/10/01 04:28:36;;;;;;;1.35;1.35;;;12.00;99.90;;;;;;4987595;28;20082;-80
2022/10/01 04:33:46;;;;;;;1.77;1.67;;;11.10;99.90;;;;;;4986180;28;20047;-80
2022/10/01 04:36:12;;;;;;;1.30;1.30;;;12.20;99.90;;;;;;4971469;28;20339;-81
2022/10/01 04:38:37;;;;;;;1.38;1.20;;;10.10;99.90;;;;;;4987990;28;20050;-79
2022/10/01 04:41:03;;;;;;;1.40;1.30;;;11.10;99.90;;;;;;4986787;28;20049;-80
2022/10/01 04:43:28;;;;;;;2.83;1.48;;;11.00;99.90;;;;;;4971301;28;20434;-79
2022/10/01 04:45:54;;;;;;;3.17;1.52;;;12.70;99.90;;;;;;4987753;28;20434;-80
2022/10/01 04:48:20;;;;;;;1.63;1.52;;;12.60;99.90;;;;;;4987365;28;20045;-79
2022/10/01 04:50:46;;;;;;;2.22;1.73;;;11.60;99.90;;;;;;4988474;28;20267;-78
2022/10/01 04:53:11;;;;;;;1.67;1.58;;;11.10;99.90;;;;;;4972675;28;20058;-80
2022/10/01 04:55:37;;;;;;;1.80;1.70;;;12.70;99.90;;;;;;4987026;28;20046;-79
2022/10/01 04:58:03;;;;;;;2.33;2.15;;;11.50;99.90;;;;;;4987307;28;20181;-79
2022/10/01 05:00:28;;;;;;;1.83;1.60;;;11.60;99.90;;;;;;4986937;28;20117;-81
2022/10/01 05:02:54;;;;;;;2.00;1.90;;;11.00;99.90;;;;;;4988108;28;20046;-81
2022/10/01 05:05:23;;;;;;;2.33;2.15;;;11.10;99.90;;;;;;4987393;28;20126;-77
2022/10/01 05:07:49;;;;;;;1.90;1.80;;;12.50;99.90;;;;;;4987662;28;20180;-79
2022/10/01 05:10:21;;;;;;;2.55;2.10;;;12.30;99.90;;;;;;4986373;28;20034;-81
2022/10/01 05:12:47;;;;;;;2.53;2.42;;;11.10;99.90;;;;;;4971273;28;20090;-82
2022/10/01 05:15:14;;;;;;;2.33;2.20;;;12.40;99.90;;;;;;4987147;28;20117;-78
2022/10/01 05:17:40;;;;;;;2.42;2.30;;;11.20;99.90;;;;;;4986800;28;20042;-80
2022/10/01 05:20:08;;;;;;;2.55;2.30;;;11.50;99.90;;;;;;4963319;28;20426;-79
2022/10/01 05:22:34;;;;;;;4.88;2.35;;;11.20;99.90;;;;;;4986476;28;20062;-79
2022/10/01 05:25:00;;;;;;;3.38;3.10;;;11.30;99.90;;;;;;4988338;28;20402;-78
2022/10/01 05:27:26;;;;;;;2.92;2.72;;;11.20;99.90;;;;;;4991072;28;20548;-79
2022/10/01 05:29:52;;;;;;;3.45;3.15;;;11.20;99.90;;;;;;4990130;28;20117;-78
2022/10/01 05:32:18;;;;;;;3.00;2.72;;;11.70;99.90;;;;;;4991328;28;20466;-79
2022/10/01 05:34:44;;;;;;;3.28;2.45;;;11.30;99.90;;;;;;4991358;28;20441;-79
2022/10/01 05:37:10;;;;;;;4.60;3.00;;;12.20;99.90;;;;;;4973918;28;20153;-84
2022/10/01 05:39:36;;;;;;;7.25;3.90;;;13.00;99.90;;;;;;4992105;28;20070;-82
2022/10/01 05:42:05;;;;;;;4.55;3.80;;;11.90;99.90;;;;;;4990783;28;20038;-83
2022/10/01 05:44:36;;;;;;;3.58;3.28;;;11.60;99.90;;;;;;4974193;28;20088;-85
2022/10/01 05:47:13;;;;;;;3.30;3.10;;;11.60;99.90;;;;;;4976014;28;20105;-80
2022/10/01 05:49:42;;;;;;;7.20;3.50;;;13.00;99.90;;;;;;4990713;28;20044;-82
2022/10/01 05:52:11;;;;;;;4.80;4.18;;;12.90;99.90;;;;;;4969470;28;20096;-83
2022/10/01 05:54:36;;;;;;;4.32;3.58;;;10.90;99.90;;;;;;4991825;28;20270;-82
2022/10/01 05:57:05;;;;;;;5.38;3.90;;;11.40;99.90;;;;;;4991865;28;20070;-84
2022/10/01 05:59:31;;;;;;;6.95;5.07;;;11.40;99.90;;;;;;4989605;28;20052;-81
2022/10/01 06:01:56;;;;;;;8.05;4.03;;;11.40;99.90;;;;;;4974045;28;20128;-82
2022/10/01 06:04:31;;;;;;;3.83;3.58;;;11.40;99.90;;;;;;4602142;28;10003107;-81
2022/10/01 06:06:57;;;;;;;5.05;4.55;;;11.20;99.90;;;;;;4986312;28;20041;-80
2022/10/01 06:09:22;;;;;;;5.13;4.22;;;12.70;99.90;;;;;;4972088;28;20057;-80
2022/10/01 06:11:48;;;;;;;5.30;4.55;;;11.50;99.90;;;;;;4987235;28;20058;-81
2022/10/01 06:14:14;;;;;;;6.25;5.72;;;11.50;99.90;;;;;;4989734;28;20065;-79
2022/10/01 06:16:40;;;;;;;6.05;5.50;;;12.60;99.90;;;;;;4987698;28;20074;-79
2022/10/01 06:19:09;;;;;;;6.20;5.50;;;11.50;99.90;;;;;;4971187;28;20522;-78
2022/10/01 06:21:34;;;;;;;8.80;5.97;;;12.00;99.90;;;;;;4988832;28;20047;-78
2022/10/01 06:24:00;;;;;;;11.07;6.57;;;12.90;99.90;;;;;;4971513;28;20053;-78
2022/10/01 06:26:27;;;;;;;8.82;5.82;;;12.50;99.90;;;;;;4987116;28;20057;-82
2022/10/01 06:28:53;;;;;;;7.55;6.70;;;11.60;99.90;;;;;;4986311;28;20133;-79
2022/10/01 06:31:20;;;;;;;9.68;5.90;;;11.70;99.90;;;;;;4973416;28;20121;-79
2022/10/01 06:33:45;;;;;;;10.98;7.15;;;12.60;99.90;;;;;;4971903;28;20086;-80
2022/10/01 06:36:11;;;;;;;10.93;7.35;;;12.80;99.90;;;;;;4972537;28;20529;-78
2022/10/01 06:38:37;;;;;;;8.63;6.32;;;13.20;99.90;;;;;;4989135;28;20038;-78
2022/10/01 06:41:04;;;;;;;9.38;6.15;;;12.70;99.90;;;;;;4988311;28;20125;-78
2022/10/01 06:43:30;;;;;;;9.90;6.65;;;11.80;99.90;;;;;;4973393;28;20326;-80
2022/10/01 06:45:59;;;;;;;11.35;6.82;;;13.30;99.90;;;;;;4973279;28;20074;-78
2022/10/01 06:48:25;;;;;;;9.60;7.55;;;13.40;99.90;;;;;;4972899;28;20046;-81
2022/10/01 06:50:51;;;;;;;9.32;6.38;;;13.40;99.90;;;;;;4989767;28;20490;-78
2022/10/01 06:53:18;;;;;;;9.95;6.85;;;12.00;99.90;;;;;;4990782;28;20042;-83
2022/10/01 06:55:44;;;;;;;12.35;7.38;;;12.20;99.90;;;;;;4988810;28;20093;-82
2022/10/01 06:58:21;;;;;;;10.00;6.45;;;13.90;99.90;;;;;;4973306;28;20521;-81
2022/10/01 07:00:48;;;;;;;14.02;7.20;;;12.10;99.90;;;;;;4989162;28;20498;-81
2022/10/01 07:03:16;;;;;;;10.70;5.53;;;12.10;99.90;;;;;;4973050;28;20042;-80
2022/10/01 07:05:42;;;;;;;12.05;7.00;;;12.20;99.90;;;;;;4988895;28;20046;-79
2022/10/01 07:08:07;;;;;;;17.95;9.63;;;12.30;99.90;;;;;;4988568;28;20056;-80
2022/10/01 07:10:34;;;;;;;9.50;5.80;;;13.60;99.90;;;;;;4972512;28;20034;-80
2022/10/01 07:13:08;;;;;;;10.68;4.90;;;13.70;99.90;;;;;;4989210;28;20161;-81
2022/10/01 07:15:34;;;;;;;9.55;5.50;;;12.40;99.90;;;;;;4988545;28;20078;-81
2022/10/01 07:18:00;;;;;;;9.10;4.57;;;13.70;99.90;;;;;;4990415;28;20461;-80
2022/10/01 07:20:25;;;;;;;10.60;3.60;;;12.40;99.90;;;;;;4988853;28;20475;-80
2022/10/01 07:22:58;;;;;;;8.40;2.55;;;12.50;99.90;;;;;;4989160;28;20472;-81
2022/10/01 07:25:25;;;;;;;8.60;2.70;;;12.40;99.90;;;;;;4972205;28;20042;-79
2022/10/01 07:27:58;;;;;;;9.40;2.53;;;12.60;99.90;;;;;;4990281;28;20057;-80
2022/10/01 07:30:25;;;;;;;13.38;2.42;;;12.50;99.90;;;;;;4980820;28;20050;-79
2022/10/01 07:32:50;;;;;;;7.07;3.08;;;12.50;99.90;;;;;;4988705;28;20097;-80
2022/10/01 07:35:18;;;;;;;10.57;2.65;;;13.70;99.90;;;;;;4988961;28;20069;-80
2022/10/01 07:37:45;;;;;;;8.40;2.55;;;13.40;99.90;;;;;;4988941;28;20057;-80
2022/10/01 07:40:10;;;;;;;12.18;4.20;;;12.40;99.90;;;;;;4972232;28;20652;-79
2022/10/01 07:42:37;;;;;;;9.10;3.80;;;12.40;99.90;;;;;;4988705;28;20199;-79
2022/10/01 07:45:05;;;;;;;13.40;3.20;;;13.80;99.90;;;;;;4987510;28;20038;-80
2022/10/01 07:47:31;;;;;;;9.50;3.40;;;12.50;99.90;;;;;;4989626;28;20046;-80
2022/10/01 07:49:59;;;;;;;10.07;3.35;;;13.90;99.90;;;;;;4988590;28;20045;-81
2022/10/01 07:52:25;;;;;;;8.80;2.42;;;12.90;99.90;;;;;;4987878;28;20109;-82
2022/10/01 07:54:51;;;;;;;14.82;2.88;;;13.60;99.90;;;;;;4990085;28;20457;-81
2022/10/01 07:57:16;;;;;;;14.70;2.72;;;12.70;99.90;;;;;;4988889;28;20073;-80
2022/10/01 07:59:42;;;;;;;8.05;2.60;;;12.70;99.90;;;;;;4971782;28;20055;-79
2022/10/01 08:02:14;;;;;;;10.68;2.85;;;14.20;99.90;;;;;;4989699;28;20117;-81
2022/10/01 08:07:25;;;;;;;9.38;2.60;;;12.80;99.90;;;;;;4986909;28;20054;-84
2022/10/01 08:09:51;;;;;;;10.07;2.40;;;13.80;99.90;;;;;;4989670;28;20042;-80
2022/10/01 08:12:16;;;;;;;13.10;2.20;;;12.90;99.90;;;;;;4987332;28;20038;-84
2022/10/01 08:14:42;;;;;;;7.22;2.03;;;13.30;99.90;;;;;;4987845;28;20042;-83
2022/10/01 08:17:08;;;;;;;10.82;2.95;;;14.30;99.90;;;;;;4987823;28;20046;-81
2022/10/01 08:19:35;;;;;;;7.80;1.90;;;13.10;99.90;;;;;;4988038;28;20486;-80
2022/10/01 08:22:06;;;;;;;11.07;2.08;;;13.10;99.90;;;;;;4987453;28;20470;-80
2022/10/01 08:24:33;;;;;;;11.45;1.50;;;13.80;99.90;;;;;;4989365;28;20085;-81
2022/10/01 08:26:59;;;;;;;12.30;1.98;;;13.70;99.90;;;;;;4987117;28;20078;-79
2022/10/01 08:29:25;;;;;;;9.27;1.50;;;14.80;99.90;;;;;;4987664;28;20038;-79
2022/10/01 08:31:52;;;;;;;10.38;1.35;;;13.30;99.90;;;;;;4971817;28;20046;-79
2022/10/01 08:34:17;;;;;;;11.18;1.95;;;13.50;99.90;;;;;;4971228;28;20039;-81
2022/10/01 08:36:44;;;;;;;16.83;2.05;;;15.20;99.90;;;;;;4987527;28;20053;-79
2022/10/01 08:39:12;;;;;;;9.77;1.67;;;13.60;99.90;;;;;;4971133;28;20042;-78
2022/10/01 08:42:06;;;;;;;13.30;2.33;;;13.70;99.90;;;;;;4970606;28;20069;-83
2022/10/01 08:44:42;;;;;;;9.55;1.98;;;13.80;99.90;;;;;;4964278;28;20528;-81
2022/10/01 08:47:17;;;;;;;13.68;1.92;;;13.90;99.90;;;;;;4968004;28;20042;-80
2022/10/01 08:49:58;;;;;;;8.65;1.98;;;14.10;99.90;;;;;;4988529;28;20121;-79
2022/10/01 08:52:28;;;;;;;15.93;2.42;;;14.10;99.90;;;;;;4970851;28;20042;-78
2022/10/01 08:54:59;;;;;;;15.90;2.40;;;14.40;99.90;;;;;;4970792;28;20569;-82
2022/10/01 08:57:37;;;;;;;14.88;2.42;;;14.20;99.90;;;;;;4970839;28;20030;-79
2022/10/01 09:00:11;;;;;;;14.90;2.47;;;14.60;99.90;;;;;;4971607;28;20138;-82
2022/10/01 09:02:41;;;;;;;22.27;2.83;;;14.40;99.90;;;;;;4974879;28;20434;-82
2022/10/01 09:05:16;;;;;;;21.38;3.33;;;15.90;99.90;;;;;;4974818;28;20490;-79
2022/10/01 09:07:50;;;;;;;9.75;2.25;;;14.40;99.90;;;;;;4974814;28;20460;-82
2022/10/01 09:10:46;;;;;;;15.65;2.45;;;14.40;99.90;;;;;;4974543;28;20054;-83
2022/10/01 09:13:15;;;;;;;10.43;1.85;;;14.40;99.90;;;;;;4974930;28;20048;-78
2022/10/01 09:16:02;;;;;;;22.92;2.60;;;14.40;99.90;;;;;;4974106;28;20050;-79
2022/10/01 09:18:56;;;;;;;13.77;2.47;;;14.40;99.90;;;;;;4974709;28;20038;-79
2022/10/01 09:21:35;;;;;;;18.15;2.75;;;14.40;99.90;;;;;;4971565;28;20137;-80
2022/10/01 09:24:31;;;;;;;13.10;2.47;;;14.40;99.90;;;;;;4974753;28;20081;-78
2022/10/01 09:26:56;;;;;;;13.75;3.08;;;15.20;99.90;;;;;;4989583;28;20113;-78
2022/10/01 09:29:31;;;;;;;16.55;2.50;;;14.70;99.90;;;;;;4990688;28;20038;-78
2022/10/01 09:32:00;;;;;;;17.90;2.53;;;15.80;99.90;;;;;;4986558;28;20042;-79
2022/10/01 09:34:39;;;;;;;14.50;2.05;;;14.30;99.90;;;;;;4974067;28;20053;-78
2022/10/01 09:37:14;;;;;;;15.68;2.20;;;14.30;99.90;;;;;;4970929;28;20054;-79
2022/10/01 09:39:59;;;;;;;10.98;2.20;;;14.30;99.90;;;;;;4985120;28;20128;-80
2022/10/01 09:42:28;;;;;;;9.63;1.50;;;14.40;99.90;;;;;;4990078;28;20039;-77
2022/10/01 09:44:54;;;;;;;6.07;1.38;;;15.60;99.90;;;;;;4990554;28;20038;-77
2022/10/01 09:47:24;;;;;;;9.57;1.85;;;14.50;99.90;;;;;;4974477;28;20077;-78
2022/10/01 09:49:50;;;;;;;9.65;1.90;;;14.50;99.90;;;;;;4973664;28;20078;-77
2022/10/01 09:52:33;;;;;;;11.15;2.05;;;14.50;99.90;;;;;;4991681;28;20039;-80
2022/10/01 09:55:17;;;;;;;11.18;1.77;;;14.50;99.90;;;;;;4973757;28;20042;-79
2022/10/01 09:58:03;;;;;;;10.73;2.08;;;14.50;99.90;;;;;;4983906;28;20042;-80
2022/10/01 10:00:29;;;;;;;10.65;1.58;;;14.50;99.90;;;;;;4973451;28;20174;-83
2022/10/01 10:02:55;;;;;;;11.35;1.83;;;14.50;99.90;;;;;;4993640;28;20049;-81
2022/10/01 10:05:26;;;;;;;14.65;2.45;;;14.40;99.90;;;;;;4990188;28;20554;-81
2022/10/01 10:07:57;;;;;;;26.23;3.58;;;14.30;99.90;;;;;;4990657;28;20042;-81
2022/10/01 10:10:34;;;;;;;11.98;2.25;;;14.20;99.90;;;;;;4989044;28;20038;-79
2022/10/01 10:13:12;;;;;;;1.20;0.32;;;14.10;99.90;;;;;;4989083;28;20043;-82
2022/10/01 10:15:58;;;;;;;4.32;0.77;;;13.80;99.90;;;;;;4991157;28;20050;-81
2022/10/01 10:18:32;;;;;;;1.60;0.38;;;13.40;99.90;;;;;;4989629;28;20046;-80
2022/10/01 10:21:02;;;;;;;0.95;0.45;;;13.20;99.90;;;;;;4990897;28;20112;-79
2022/10/01 10:23:28;;;;;;;5.20;0.52;;;13.90;99.90;;;;;;4988910;28;20509;-80
2022/10/01 10:26:01;;;;;;;1.17;0.40;;;12.90;99.90;;;;;;4989478;28;20042;-79
2022/10/01 10:28:38;;;;;;;2.63;0.45;;;12.90;99.90;;;;;;4989789;28;20061;-79
2022/10/01 10:31:13;;;;;;;2.95;0.93;;;12.80;99.90;;;;;;4976236;28;20121;-83
2022/10/01 10:33:50;;;;;;;4.53;0.63;;;12.70;99.90;;;;;;4972152;28;20050;-81
2022/10/01 10:36:18;;;;;;;4.80;0.75;;;12.70;99.90;;;;;;4988264;28;20434;-82
2022/10/01 10:38:46;;;;;;;3.67;0.70;;;12.80;99.90;;;;;;4972698;28;20054;-84
2022/10/01 10:41:21;;;;;;;5.30;0.82;;;12.70;99.90;;;;;;4969585;28;20073;-82
2022/10/01 10:43:48;;;;;;;5.80;0.50;;;12.80;99.90;;;;;;4990811;28;20042;-82
2022/10/01 10:46:22;;;;;;;5.97;1.48;;;14.40;99.90;;;;;;4988816;28;20122;-80
2022/10/01 10:48:57;;;;;;;7.05;1.52;;;12.90;99.90;;;;;;4972625;28;20050;-82
2022/10/01 10:51:23;;;;;;;9.13;1.95;;;13.20;99.90;;;;;;4989154;28;20045;-81
2022/10/01 10:53:48;;;;;;;11.05;1.80;;;13.20;99.90;;;;;;4973133;28;20049;-83
2022/10/01 10:56:21;;;;;;;13.50;2.47;;;13.30;99.90;;;;;;4991279;28;20042;-82
2022/10/01 10:58:47;;;;;;;10.98;1.80;;;13.30;99.90;;;;;;4972154;28;20104;-82
2022/10/01 11:01:28;;;;;;;11.25;2.25;;;13.40;99.90;;;;;;4972871;28;20084;-82
2022/10/01 11:03:59;;;;;;;12.52;1.90;;;13.40;99.90;;;;;;4985563;28;20093;-82
2022/10/01 11:06:25;;;;;;;9.75;1.65;;;13.40;99.90;;;;;;4989931;28;20042;-82
2022/10/01 11:09:00;;;;;;;17.10;1.83;;;13.40;99.90;;;;;;4990564;28;20058;-82
2022/10/01 11:11:53;;;;;;;13.73;2.05;;;13.40;99.90;;;;;;4987641;28;20536;-82
2022/10/01 11:14:34;;;;;;;13.65;2.08;;;14.60;99.90;;;;;;4972313;28;20038;-81
2022/10/01 11:17:12;;;;;;;6.82;1.80;;;13.60;99.90;;;;;;4990264;28;20251;-82
2022/10/01 11:19:54;;;;;;;10.60;1.83;;;13.70;99.90;;;;;;4971728;28;20057;-81
2022/10/01 11:22:58;;;;;;;9.38;1.95;;;13.80;99.90;;;;;;4988501;28;20414;-81
2022/10/01 11:25:36;;;;;;;10.00;1.70;;;14.00;99.90;;;;;;4985724;28;20490;-80
2022/10/01 11:28:39;;;;;;;9.07;1.67;;;14.10;99.90;;;;;;4987998;28;20058;-81
2022/10/01 11:31:08;;;;;;;6.95;1.50;;;14.20;99.90;;;;;;4988122;28;20130;-81
2022/10/01 11:33:56;;;;;;;15.70;2.13;;;14.30;99.90;;;;;;4988091;28;20052;-80
2022/10/01 11:36:44;;;;;;;13.30;1.85;;;14.30;99.90;;;;;;4989877;28;20425;-81
2022/10/01 11:39:18;;;;;;;11.60;1.70;;;14.40;99.90;;;;;;4971973;28;20038;-80
2022/10/01 11:42:11;;;;;;;14.57;1.55;;;14.50;99.90;;;;;;4969345;28;21090;-80
2022/10/01 11:44:49;;;;;;;10.55;1.60;;;14.70;99.90;;;;;;4986974;28;20150;-82
2022/10/01 11:47:24;;;;;;;10.20;2.08;;;14.80;99.90;;;;;;4989702;28;20058;-81
2022/10/01 11:49:53;;;;;;;13.30;1.98;;;14.90;99.90;;;;;;4981276;28;20042;-79
2022/10/01 11:52:51;;;;;;;7.80;1.58;;;15.00;99.90;;;;;;4988438;28;20053;-82
2022/10/01 12:01:23;;;;;;;13.98;2.50;;;14.80;99.90;;;;;;4986734;28;20651;-80
2022/10/01 12:03:49;;;;;;;10.77;1.95;;;15.00;99.90;;;;;;4979411;28;20108;-81
2022/10/01 12:06:19;;;;;;;13.35;2.03;;;15.80;99.90;;;;;;4971526;28;20064;-80
2022/10/01 12:08:52;;;;;;;12.60;2.47;;;16.00;99.90;;;;;;4970447;28;20053;-80
2022/10/01 12:11:25;;;;;;;13.20;1.75;;;14.80;99.90;;;;;;4988594;28;20100;-79
2022/10/01 12:13:59;;;;;;;13.35;1.95;;;14.70;99.90;;;;;;4980660;28;20042;-79
2022/10/01 12:16:49;;;;;;;8.68;2.08;;;14.70;99.90;;;;;;4986242;28;20050;-80
2022/10/01 12:19:47;;;;;;;12.18;2.05;;;14.80;99.90;;;;;;4973599;28;20050;-82
2022/10/01 12:22:29;;;;;;;12.55;2.58;;;15.00;99.90;;;;;;4965179;28;20050;-81
2022/10/01 12:24:55;;;;;;;12.93;2.30;;;15.10;99.90;;;;;;4968206;28;20486;-81
2022/10/01 12:27:24;;;;;;;11.32;2.35;;;15.60;99.90;;;;;;4984211;28;20157;-82
2022/10/01 12:29:58;;;;;;;7.45;1.25;;;15.40;99.90;;;;;;4984406;28;20066;-79
2022/10/01 12:32:31;;;;;;;13.10;2.13;;;15.50;99.90;;;;;;4971315;28;20045;-80
2022/10/01 12:35:04;;;;;;;13.70;2.97;;;15.60;99.90;;;;;;4984757;28;20554;-80
2022/10/01 12:38:05;;;;;;;14.88;5.75;;;16.50;99.90;;;;;;4986940;28;20042;-80
2022/10/01 12:40:30;;;;;;;6.97;1.23;;;15.70;99.90;;;;;;4987088;28;20073;-80
2022/10/01 12:43:05;;;;;;;11.48;1.95;;;15.70;99.90;;;;;;4971450;28;20077;-80
2022/10/01 12:45:47;;;;;;;7.72;1.10;;;15.70;99.90;;;;;;4970580;28;20126;-80
2022/10/01 12:48:23;;;;;;;7.32;0.90;;;15.60;99.90;;;;;;4966430;28;20043;-83
2022/10/01 12:51:07;;;;;;;6.25;1.10;;;15.60;99.90;;;;;;4970306;28;20041;-83
2022/10/01 12:53:59;;;;;;;6.53;1.27;;;15.70;99.90;;;;;;4987800;28;20038;-81
2022/10/01 12:56:36;;;;;;;10.98;2.15;;;15.80;99.90;;;;;;4989183;28;20093;-84
2022/10/01 12:59:09;;;;;;;6.97;1.33;;;15.70;99.90;;;;;;4980151;28;20043;-82
2022/10/01 13:01:47;;;;;;;12.82;1.33;;;15.50;99.90;;;;;;4987239;28;20045;-82
2022/10/01 13:04:26;;;;;;;14.38;2.67;;;15.40;99.90;;;;;;4971150;28;20068;-80
2022/10/01 13:07:09;;;;;;;20.33;3.15;;;15.20;99.90;;;;;;4986740;28;20066;-81
2022/10/01 13:09:41;;;;;;;12.35;2.35;;;16.10;99.90;;;;;;4987219;28;20567;-80
2022/10/01 13:12:16;;;;;;;13.40;2.78;;;14.60;99.90;;;;;;4986475;28;20403;-81
2022/10/01 13:14:43;;;;;;;11.88;1.85;;;14.40;99.90;;;;;;4988661;28;20056;-80